sensor_id;sensor_type;location;lat;lon;timestamp;P1;durP1;ratioP1;P2;durP2;ratioP2
70126;SDS011;57491;42.694;23.314;2023-05-06T00:00:01;19.65;;;11.55;;
70126;SDS011;57491;42.694;23.314;2023-05-06T00:02:32;21.38;;;11.57;;
70126;SDS011;57491;42.694;23.314;2023-05-06T00:04:59;17.00;;;11.63;;
70126;SDS011;57491;42.694;23.314;2023-05-06T00:09:54;15.40;;;11.50;;
70126;SDS011;57491;42.694;23.314;2023-05-06T00:12:21;17.48;;;12.10;;
70126;SDS011;57491;42.694;23.314;2023-05-06T00:14:48;19.55;;;12.50;;
70126;SDS011;57491;42.694;23.314;2023-05-06T00:17:15;16.05;;;11.13;;
70126;SDS011;57491;42.694;23.314;2023-05-06T00:19:44;25.95;;;12.93;;
70126;SDS011;57491;42.694;23.314;2023-05-06T00:22:11;17.38;;;11.90;;
70126;SDS011;57491;42.694;23.314;2023-05-06T00:24:38;17.17;;;11.23;;
70126;SDS011;57491;42.694;23.314;2023-05-06T00:27:05;18.90;;;10.98;;
70126;SDS011;57491;42.694;23.314;2023-05-06T00:29:32;19.10;;;11.30;;
70126;SDS011;57491;42.694;23.314;2023-05-06T00:31:59;17.85;;;12.43;;
70126;SDS011;57491;42.694;23.314;2023-05-06T00:34:26;19.70;;;12.52;;
70126;SDS011;57491;42.694;23.314;2023-05-06T00:36:54;21.13;;;12.15;;
70126;SDS011;57491;42.694;23.314;2023-05-06T00:39:21;20.00;;;12.90;;
70126;SDS011;57491;42.694;23.314;2023-05-06T00:41:48;21.55;;;12.95;;
70126;SDS011;57491;42.694;23.314;2023-05-06T00:44:15;19.00;;;11.68;;
70126;SDS011;57491;42.694;23.314;2023-05-06T00:46:42;22.73;;;12.73;;
70126;SDS011;57491;42.694;23.314;2023-05-06T00:49:10;25.00;;;13.35;;
70126;SDS011;57491;42.694;23.314;2023-05-06T00:54:05;18.83;;;12.02;;
70126;SDS011;57491;42.694;23.314;2023-05-06T00:56:32;20.27;;;12.70;;
70126;SDS011;57491;42.694;23.314;2023-05-06T00:58:59;21.10;;;13.82;;
70126;SDS011;57491;42.694;23.314;2023-05-06T01:01:28;19.85;;;13.00;;
70126;SDS011;57491;42.694;23.314;2023-05-06T01:03:56;21.27;;;12.48;;
70126;SDS011;57491;42.694;23.314;2023-05-06T01:06:25;18.58;;;13.65;;
70126;SDS011;57491;42.694;23.314;2023-05-06T01:09:00;21.63;;;13.05;;
70126;SDS011;57491;42.694;23.314;2023-05-06T01:11:37;21.48;;;13.35;;
70126;SDS011;57491;42.694;23.314;2023-05-06T01:14:12;24.50;;;14.13;;
70126;SDS011;57491;42.694;23.314;2023-05-06T01:16:46;22.55;;;13.52;;
70126;SDS011;57491;42.694;23.314;2023-05-06T01:19:23;20.75;;;14.07;;
70126;SDS011;57491;42.694;23.314;2023-05-06T01:22:04;20.55;;;13.60;;
70126;SDS011;57491;42.694;23.314;2023-05-06T01:24:36;20.88;;;12.90;;
70126;SDS011;57491;42.694;23.314;2023-05-06T01:27:04;20.63;;;12.88;;
70126;SDS011;57491;42.694;23.314;2023-05-06T01:29:32;23.30;;;12.80;;
70126;SDS011;57491;42.694;23.314;2023-05-06T01:32:03;21.55;;;13.10;;
70126;SDS011;57491;42.694;23.314;2023-05-06T01:34:42;21.63;;;12.57;;
70126;SDS011;57491;42.694;23.314;2023-05-06T01:37:19;18.58;;;12.75;;
70126;SDS011;57491;42.694;23.314;2023-05-06T01:39:53;21.65;;;14.32;;
70126;SDS011;57491;42.694;23.314;2023-05-06T01:42:24;18.63;;;12.57;;
70126;SDS011;57491;42.694;23.314;2023-05-06T01:44:53;18.92;;;12.38;;
70126;SDS011;57491;42.694;23.314;2023-05-06T01:47:22;20.35;;;11.68;;
70126;SDS011;57491;42.694;23.314;2023-05-06T01:52:17;24.73;;;16.40;;
70126;SDS011;57491;42.694;23.314;2023-05-06T01:54:46;25.35;;;16.75;;
70126;SDS011;57491;42.694;23.314;2023-05-06T01:57:14;24.52;;;15.52;;
70126;SDS011;57491;42.694;23.314;2023-05-06T01:59:42;27.02;;;17.48;;
70126;SDS011;57491;42.694;23.314;2023-05-06T02:02:09;23.23;;;14.52;;
70126;SDS011;57491;42.694;23.314;2023-05-06T02:04:39;21.77;;;14.30;;
70126;SDS011;57491;42.694;23.314;2023-05-06T02:07:06;24.42;;;15.05;;
70126;SDS011;57491;42.694;23.314;2023-05-06T02:09:33;21.10;;;14.05;;
70126;SDS011;57491;42.694;23.314;2023-05-06T02:12:00;20.10;;;14.38;;
70126;SDS011;57491;42.694;23.314;2023-05-06T02:14:28;29.98;;;14.88;;
70126;SDS011;57491;42.694;23.314;2023-05-06T02:16:56;20.75;;;13.15;;
70126;SDS011;57491;42.694;23.314;2023-05-06T02:19:23;26.15;;;14.95;;
70126;SDS011;57491;42.694;23.314;2023-05-06T02:21:50;23.00;;;15.15;;
70126;SDS011;57491;42.694;23.314;2023-05-06T02:24:17;24.88;;;14.30;;
70126;SDS011;57491;42.694;23.314;2023-05-06T02:26:44;19.83;;;12.88;;
70126;SDS011;57491;42.694;23.314;2023-05-06T02:29:11;20.05;;;12.60;;
70126;SDS011;57491;42.694;23.314;2023-05-06T02:31:39;21.48;;;14.10;;
70126;SDS011;57491;42.694;23.314;2023-05-06T02:34:07;23.25;;;13.82;;
70126;SDS011;57491;42.694;23.314;2023-05-06T02:36:34;17.30;;;12.00;;
70126;SDS011;57491;42.694;23.314;2023-05-06T02:39:01;18.23;;;11.87;;
70126;SDS011;57491;42.694;23.314;2023-05-06T02:41:29;15.65;;;10.70;;
70126;SDS011;57491;42.694;23.314;2023-05-06T02:43:56;20.52;;;11.70;;
70126;SDS011;57491;42.694;23.314;2023-05-06T02:46:23;19.25;;;10.50;;
70126;SDS011;57491;42.694;23.314;2023-05-06T02:48:51;14.77;;;10.40;;
70126;SDS011;57491;42.694;23.314;2023-05-06T02:51:18;15.55;;;10.95;;
70126;SDS011;57491;42.694;23.314;2023-05-06T02:53:45;17.20;;;10.38;;
70126;SDS011;57491;42.694;23.314;2023-05-06T02:56:12;14.23;;;9.40;;
70126;SDS011;57491;42.694;23.314;2023-05-06T02:58:39;17.23;;;10.02;;
70126;SDS011;57491;42.694;23.314;2023-05-06T03:01:06;17.55;;;11.25;;
70126;SDS011;57491;42.694;23.314;2023-05-06T03:03:34;18.50;;;10.27;;
70126;SDS011;57491;42.694;23.314;2023-05-06T03:06:02;17.43;;;10.00;;
70126;SDS011;57491;42.694;23.314;2023-05-06T03:08:30;14.27;;;10.52;;
70126;SDS011;57491;42.694;23.314;2023-05-06T03:10:57;15.65;;;9.20;;
70126;SDS011;57491;42.694;23.314;2023-05-06T03:13:24;18.65;;;10.07;;
70126;SDS011;57491;42.694;23.314;2023-05-06T03:15:51;19.10;;;10.82;;
70126;SDS011;57491;42.694;23.314;2023-05-06T03:18:19;22.33;;;10.02;;
70126;SDS011;57491;42.694;23.314;2023-05-06T03:20:47;17.23;;;11.15;;
70126;SDS011;57491;42.694;23.314;2023-05-06T03:23:16;16.33;;;9.93;;
70126;SDS011;57491;42.694;23.314;2023-05-06T03:25:43;18.38;;;11.52;;
70126;SDS011;57491;42.694;23.314;2023-05-06T03:28:10;15.88;;;9.65;;
70126;SDS011;57491;42.694;23.314;2023-05-06T03:30:37;20.13;;;10.07;;
70126;SDS011;57491;42.694;23.314;2023-05-06T03:33:04;14.40;;;9.43;;
70126;SDS011;57491;42.694;23.314;2023-05-06T03:35:31;14.55;;;9.75;;
70126;SDS011;57491;42.694;23.314;2023-05-06T03:37:58;17.85;;;10.38;;
70126;SDS011;57491;42.694;23.314;2023-05-06T03:40:27;17.17;;;9.80;;
70126;SDS011;57491;42.694;23.314;2023-05-06T03:42:54;15.80;;;10.02;;
70126;SDS011;57491;42.694;23.314;2023-05-06T03:45:21;18.30;;;10.48;;
70126;SDS011;57491;42.694;23.314;2023-05-06T03:47:48;19.73;;;10.10;;
70126;SDS011;57491;42.694;23.314;2023-05-06T03:50:15;23.30;;;11.82;;
70126;SDS011;57491;42.694;23.314;2023-05-06T03:52:42;19.07;;;10.27;;
70126;SDS011;57491;42.694;23.314;2023-05-06T03:55:09;18.85;;;10.10;;
70126;SDS011;57491;42.694;23.314;2023-05-06T03:57:38;16.88;;;10.10;;
70126;SDS011;57491;42.694;23.314;2023-05-06T04:00:06;16.95;;;8.73;;
70126;SDS011;57491;42.694;23.314;2023-05-06T04:02:34;13.77;;;9.27;;
70126;SDS011;57491;42.694;23.314;2023-05-06T04:05:02;14.52;;;9.55;;
70126;SDS011;57491;42.694;23.314;2023-05-06T04:07:29;12.68;;;9.23;;
70126;SDS011;57491;42.694;23.314;2023-05-06T04:09:56;12.70;;;9.77;;
70126;SDS011;57491;42.694;23.314;2023-05-06T04:12:23;15.68;;;9.18;;
70126;SDS011;57491;42.694;23.314;2023-05-06T04:14:53;14.02;;;9.65;;
70126;SDS011;57491;42.694;23.314;2023-05-06T04:17:20;14.10;;;9.32;;
70126;SDS011;57491;42.694;23.314;2023-05-06T04:19:47;15.48;;;9.88;;
70126;SDS011;57491;42.694;23.314;2023-05-06T04:22:14;16.88;;;10.02;;
70126;SDS011;57491;42.694;23.314;2023-05-06T04:24:41;20.30;;;10.75;;
70126;SDS011;57491;42.694;23.314;2023-05-06T04:27:10;18.20;;;10.93;;
70126;SDS011;57491;42.694;23.314;2023-05-06T04:29:37;18.33;;;11.43;;
70126;SDS011;57491;42.694;23.314;2023-05-06T04:32:05;19.10;;;12.00;;
70126;SDS011;57491;42.694;23.314;2023-05-06T04:34:36;19.52;;;11.45;;
70126;SDS011;57491;42.694;23.314;2023-05-06T04:37:03;20.60;;;11.18;;
70126;SDS011;57491;42.694;23.314;2023-05-06T04:39:31;20.55;;;11.02;;
70126;SDS011;57491;42.694;23.314;2023-05-06T04:41:58;20.60;;;12.50;;
70126;SDS011;57491;42.694;23.314;2023-05-06T04:46:53;19.95;;;12.40;;
70126;SDS011;57491;42.694;23.314;2023-05-06T04:49:22;19.02;;;11.90;;
70126;SDS011;57491;42.694;23.314;2023-05-06T04:51:49;18.88;;;11.73;;
70126;SDS011;57491;42.694;23.314;2023-05-06T04:54:16;19.95;;;12.32;;
70126;SDS011;57491;42.694;23.314;2023-05-06T04:56:43;24.65;;;11.90;;
70126;SDS011;57491;42.694;23.314;2023-05-06T04:59:10;20.48;;;11.90;;
70126;SDS011;57491;42.694;23.314;2023-05-06T05:01:37;19.40;;;12.33;;
70126;SDS011;57491;42.694;23.314;2023-05-06T05:04:04;19.37;;;12.10;;
70126;SDS011;57491;42.694;23.314;2023-05-06T05:06:33;16.97;;;11.53;;
70126;SDS011;57491;42.694;23.314;2023-05-06T05:09:00;18.92;;;11.85;;
70126;SDS011;57491;42.694;23.314;2023-05-06T05:11:27;17.20;;;10.45;;
70126;SDS011;57491;42.694;23.314;2023-05-06T05:13:54;18.55;;;11.27;;
70126;SDS011;57491;42.694;23.314;2023-05-06T05:16:21;13.23;;;9.95;;
70126;SDS011;57491;42.694;23.314;2023-05-06T05:18:48;13.63;;;10.10;;
70126;SDS011;57491;42.694;23.314;2023-05-06T05:21:15;17.43;;;10.67;;
70126;SDS011;57491;42.694;23.314;2023-05-06T05:23:43;16.33;;;11.52;;
70126;SDS011;57491;42.694;23.314;2023-05-06T05:26:11;18.58;;;10.18;;
70126;SDS011;57491;42.694;23.314;2023-05-06T05:28:38;14.93;;;10.02;;
70126;SDS011;57491;42.694;23.314;2023-05-06T05:31:05;15.93;;;10.68;;
70126;SDS011;57491;42.694;23.314;2023-05-06T05:33:32;19.67;;;10.50;;
70126;SDS011;57491;42.694;23.314;2023-05-06T05:35:59;13.93;;;10.07;;
70126;SDS011;57491;42.694;23.314;2023-05-06T05:38:26;25.48;;;14.63;;
70126;SDS011;57491;42.694;23.314;2023-05-06T05:40:55;16.02;;;11.13;;
70126;SDS011;57491;42.694;23.314;2023-05-06T05:43:22;15.90;;;11.48;;
70126;SDS011;57491;42.694;23.314;2023-05-06T05:45:50;16.33;;;9.98;;
70126;SDS011;57491;42.694;23.314;2023-05-06T05:48:17;20.38;;;11.18;;
70126;SDS011;57491;42.694;23.314;2023-05-06T05:50:44;15.35;;;10.80;;
70126;SDS011;57491;42.694;23.314;2023-05-06T05:53:11;14.55;;;11.45;;
70126;SDS011;57491;42.694;23.314;2023-05-06T05:55:38;18.52;;;11.07;;
70126;SDS011;57491;42.694;23.314;2023-05-06T05:58:08;15.45;;;10.23;;
70126;SDS011;57491;42.694;23.314;2023-05-06T06:00:35;17.58;;;11.00;;
70126;SDS011;57491;42.694;23.314;2023-05-06T06:03:03;15.75;;;11.40;;
70126;SDS011;57491;42.694;23.314;2023-05-06T06:05:30;16.48;;;10.98;;
70126;SDS011;57491;42.694;23.314;2023-05-06T06:07:57;16.80;;;13.27;;
70126;SDS011;57491;42.694;23.314;2023-05-06T06:10:24;17.67;;;11.00;;
70126;SDS011;57491;42.694;23.314;2023-05-06T06:12:51;19.13;;;10.63;;
70126;SDS011;57491;42.694;23.314;2023-05-06T06:15:20;18.30;;;11.25;;
70126;SDS011;57491;42.694;23.314;2023-05-06T06:17:47;17.98;;;10.23;;
70126;SDS011;57491;42.694;23.314;2023-05-06T06:20:14;18.90;;;10.55;;
70126;SDS011;57491;42.694;23.314;2023-05-06T06:22:41;17.65;;;11.25;;
70126;SDS011;57491;42.694;23.314;2023-05-06T06:25:08;18.05;;;10.65;;
70126;SDS011;57491;42.694;23.314;2023-05-06T06:27:35;13.73;;;10.10;;
70126;SDS011;57491;42.694;23.314;2023-05-06T06:30:02;15.00;;;9.93;;
70126;SDS011;57491;42.694;23.314;2023-05-06T06:32:31;22.20;;;12.30;;
70126;SDS011;57491;42.694;23.314;2023-05-06T06:34:58;16.02;;;11.30;;
70126;SDS011;57491;42.694;23.314;2023-05-06T06:37:25;13.70;;;8.95;;
70126;SDS011;57491;42.694;23.314;2023-05-06T06:39:52;15.30;;;8.82;;
70126;SDS011;57491;42.694;23.314;2023-05-06T06:42:19;12.88;;;9.13;;
70126;SDS011;57491;42.694;23.314;2023-05-06T06:44:46;14.70;;;9.43;;
70126;SDS011;57491;42.694;23.314;2023-05-06T06:47:13;10.10;;;8.02;;
70126;SDS011;57491;42.694;23.314;2023-05-06T06:49:41;10.27;;;7.80;;
70126;SDS011;57491;42.694;23.314;2023-05-06T06:52:08;13.95;;;8.35;;
70126;SDS011;57491;42.694;23.314;2023-05-06T06:54:36;11.90;;;8.43;;
70126;SDS011;57491;42.694;23.314;2023-05-06T06:57:03;12.23;;;8.13;;
70126;SDS011;57491;42.694;23.314;2023-05-06T06:59:31;12.07;;;8.32;;
70126;SDS011;57491;42.694;23.314;2023-05-06T07:01:59;17.80;;;9.65;;
70126;SDS011;57491;42.694;23.314;2023-05-06T07:04:27;14.38;;;10.25;;
70126;SDS011;57491;42.694;23.314;2023-05-06T07:06:55;18.02;;;11.93;;
70126;SDS011;57491;42.694;23.314;2023-05-06T07:09:22;15.90;;;10.35;;
70126;SDS011;57491;42.694;23.314;2023-05-06T07:11:49;13.75;;;9.70;;
70126;SDS011;57491;42.694;23.314;2023-05-06T07:14:17;11.77;;;9.00;;
70126;SDS011;57491;42.694;23.314;2023-05-06T07:16:44;10.17;;;8.60;;
70126;SDS011;57491;42.694;23.314;2023-05-06T07:19:11;10.43;;;9.17;;
70126;SDS011;57491;42.694;23.314;2023-05-06T07:21:37;12.70;;;8.10;;
70126;SDS011;57491;42.694;23.314;2023-05-06T07:24:07;11.45;;;9.13;;
70126;SDS011;57491;42.694;23.314;2023-05-06T07:26:34;8.75;;;7.20;;
70126;SDS011;57491;42.694;23.314;2023-05-06T07:29:01;10.15;;;8.07;;
70126;SDS011;57491;42.694;23.314;2023-05-06T07:33:57;9.88;;;6.28;;
70126;SDS011;57491;42.694;23.314;2023-05-06T07:36:24;9.40;;;7.00;;
70126;SDS011;57491;42.694;23.314;2023-05-06T07:38:53;11.80;;;8.48;;
70126;SDS011;57491;42.694;23.314;2023-05-06T07:41:21;10.80;;;7.72;;
70126;SDS011;57491;42.694;23.314;2023-05-06T07:43:48;11.88;;;7.65;;
70126;SDS011;57491;42.694;23.314;2023-05-06T07:46:15;9.10;;;7.82;;
70126;SDS011;57491;42.694;23.314;2023-05-06T07:48:42;12.95;;;7.28;;
70126;SDS011;57491;42.694;23.314;2023-05-06T07:51:09;10.82;;;7.43;;
70126;SDS011;57491;42.694;23.314;2023-05-06T07:53:36;9.70;;;7.70;;
70126;SDS011;57491;42.694;23.314;2023-05-06T07:56:04;9.10;;;6.90;;
70126;SDS011;57491;42.694;23.314;2023-05-06T07:58:33;9.55;;;5.72;;
70126;SDS011;57491;42.694;23.314;2023-05-06T08:01:00;14.35;;;6.63;;
70126;SDS011;57491;42.694;23.314;2023-05-06T08:03:28;7.07;;;6.38;;
70126;SDS011;57491;42.694;23.314;2023-05-06T08:05:56;8.95;;;6.47;;
70126;SDS011;57491;42.694;23.314;2023-05-06T08:08:23;8.30;;;5.68;;
70126;SDS011;57491;42.694;23.314;2023-05-06T08:10:52;5.82;;;5.07;;
70126;SDS011;57491;42.694;23.314;2023-05-06T08:13:19;7.53;;;5.43;;
70126;SDS011;57491;42.694;23.314;2023-05-06T08:15:47;8.68;;;6.05;;
70126;SDS011;57491;42.694;23.314;2023-05-06T08:18:14;9.30;;;6.05;;
70126;SDS011;57491;42.694;23.314;2023-05-06T08:20:41;6.67;;;5.37;;
70126;SDS011;57491;42.694;23.314;2023-05-06T08:23:08;8.73;;;6.57;;
70126;SDS011;57491;42.694;23.314;2023-05-06T08:25:35;8.03;;;5.93;;
70126;SDS011;57491;42.694;23.314;2023-05-06T08:28:02;11.55;;;6.07;;
70126;SDS011;57491;42.694;23.314;2023-05-06T08:30:29;9.57;;;6.15;;
70126;SDS011;57491;42.694;23.314;2023-05-06T08:32:58;7.72;;;6.50;;
70126;SDS011;57491;42.694;23.314;2023-05-06T08:35:25;8.90;;;6.07;;
70126;SDS011;57491;42.694;23.314;2023-05-06T08:37:52;6.85;;;6.13;;
70126;SDS011;57491;42.694;23.314;2023-05-06T08:40:20;8.60;;;5.30;;
70126;SDS011;57491;42.694;23.314;2023-05-06T08:42:49;10.30;;;5.53;;
70126;SDS011;57491;42.694;23.314;2023-05-06T08:47:43;8.05;;;5.22;;
70126;SDS011;57491;42.694;23.314;2023-05-06T08:50:12;7.85;;;5.05;;
70126;SDS011;57491;42.694;23.314;2023-05-06T08:52:39;9.68;;;5.85;;
70126;SDS011;57491;42.694;23.314;2023-05-06T08:55:07;7.90;;;5.57;;
70126;SDS011;57491;42.694;23.314;2023-05-06T08:57:35;7.90;;;7.10;;
70126;SDS011;57491;42.694;23.314;2023-05-06T09:00:04;6.00;;;5.15;;
70126;SDS011;57491;42.694;23.314;2023-05-06T09:02:35;5.85;;;5.03;;
70126;SDS011;57491;42.694;23.314;2023-05-06T09:05:03;5.85;;;5.25;;
70126;SDS011;57491;42.694;23.314;2023-05-06T09:07:32;9.43;;;4.80;;
70126;SDS011;57491;42.694;23.314;2023-05-06T09:09:59;6.53;;;5.47;;
70126;SDS011;57491;42.694;23.314;2023-05-06T09:12:31;5.70;;;4.78;;
70126;SDS011;57491;42.694;23.314;2023-05-06T09:15:02;6.57;;;5.13;;
70126;SDS011;57491;42.694;23.314;2023-05-06T09:17:29;9.27;;;6.25;;
70126;SDS011;57491;42.694;23.314;2023-05-06T09:19:57;6.80;;;5.38;;
70126;SDS011;57491;42.694;23.314;2023-05-06T09:22:25;6.05;;;4.93;;
70126;SDS011;57491;42.694;23.314;2023-05-06T09:24:54;7.60;;;5.47;;
70126;SDS011;57491;42.694;23.314;2023-05-06T09:27:23;5.55;;;4.90;;
70126;SDS011;57491;42.694;23.314;2023-05-06T09:30:00;5.07;;;4.40;;
70126;SDS011;57491;42.694;23.314;2023-05-06T09:32:29;9.00;;;6.00;;
70126;SDS011;57491;42.694;23.314;2023-05-06T09:34:57;7.43;;;5.43;;
70126;SDS011;57491;42.694;23.314;2023-05-06T09:37:24;5.45;;;4.88;;
70126;SDS011;57491;42.694;23.314;2023-05-06T09:42:21;6.15;;;5.10;;
70126;SDS011;57491;42.694;23.314;2023-05-06T09:44:54;5.50;;;5.00;;
70126;SDS011;57491;42.694;23.314;2023-05-06T09:47:22;6.57;;;5.43;;
70126;SDS011;57491;42.694;23.314;2023-05-06T09:49:50;6.72;;;5.35;;
70126;SDS011;57491;42.694;23.314;2023-05-06T09:52:17;9.20;;;5.68;;
70126;SDS011;57491;42.694;23.314;2023-05-06T09:54:45;6.43;;;4.93;;
70126;SDS011;57491;42.694;23.314;2023-05-06T09:57:14;10.23;;;5.32;;
70126;SDS011;57491;42.694;23.314;2023-05-06T09:59:43;7.22;;;5.15;;
70126;SDS011;57491;42.694;23.314;2023-05-06T10:02:12;7.07;;;5.07;;
70126;SDS011;57491;42.694;23.314;2023-05-06T10:04:40;8.27;;;5.82;;
70126;SDS011;57491;42.694;23.314;2023-05-06T10:07:08;6.30;;;4.68;;
70126;SDS011;57491;42.694;23.314;2023-05-06T10:09:37;5.18;;;4.68;;
70126;SDS011;57491;42.694;23.314;2023-05-06T10:12:05;8.02;;;5.72;;
70126;SDS011;57491;42.694;23.314;2023-05-06T10:14:35;7.72;;;5.68;;
70126;SDS011;57491;42.694;23.314;2023-05-06T10:17:03;9.45;;;6.20;;
70126;SDS011;57491;42.694;23.314;2023-05-06T10:19:34;9.50;;;5.20;;
70126;SDS011;57491;42.694;23.314;2023-05-06T10:22:02;7.13;;;5.68;;
70126;SDS011;57491;42.694;23.314;2023-05-06T10:24:39;10.73;;;5.97;;
70126;SDS011;57491;42.694;23.314;2023-05-06T10:27:13;9.82;;;6.05;;
70126;SDS011;57491;42.694;23.314;2023-05-06T10:29:45;7.70;;;6.20;;
70126;SDS011;57491;42.694;23.314;2023-05-06T10:32:14;7.25;;;5.43;;
70126;SDS011;57491;42.694;23.314;2023-05-06T10:34:47;17.50;;;5.72;;
70126;SDS011;57491;42.694;23.314;2023-05-06T10:37:20;7.00;;;4.85;;
70126;SDS011;57491;42.694;23.314;2023-05-06T10:39:50;6.45;;;4.55;;
70126;SDS011;57491;42.694;23.314;2023-05-06T10:42:19;6.70;;;5.18;;
70126;SDS011;57491;42.694;23.314;2023-05-06T10:44:56;8.35;;;5.72;;
70126;SDS011;57491;42.694;23.314;2023-05-06T10:47:24;9.45;;;5.00;;
70126;SDS011;57491;42.694;23.314;2023-05-06T10:52:44;9.30;;;4.45;;
70126;SDS011;57491;42.694;23.314;2023-05-06T10:55:24;7.90;;;5.53;;
70126;SDS011;57491;42.694;23.314;2023-05-06T10:57:53;6.35;;;4.93;;
70126;SDS011;57491;42.694;23.314;2023-05-06T11:00:23;7.55;;;4.43;;
70126;SDS011;57491;42.694;23.314;2023-05-06T11:02:55;5.40;;;4.30;;
70126;SDS011;57491;42.694;23.314;2023-05-06T11:05:23;7.55;;;4.35;;
70126;SDS011;57491;42.694;23.314;2023-05-06T11:07:51;6.00;;;3.53;;
70126;SDS011;57491;42.694;23.314;2023-05-06T11:15:50;4.32;;;3.78;;
70126;SDS011;57491;42.694;23.314;2023-05-06T11:24:05;4.75;;;3.08;;
70126;SDS011;57491;42.694;23.314;2023-05-06T11:26:34;4.35;;;3.30;;
70126;SDS011;57491;42.694;23.314;2023-05-06T11:29:01;7.38;;;3.00;;
70126;SDS011;57491;42.694;23.314;2023-05-06T11:31:35;6.40;;;3.05;;
70126;SDS011;57491;42.694;23.314;2023-05-06T11:34:05;5.80;;;3.25;;
70126;SDS011;57491;42.694;23.314;2023-05-06T11:36:35;4.43;;;3.45;;
70126;SDS011;57491;42.694;23.314;2023-05-06T11:39:10;5.20;;;3.75;;
70126;SDS011;57491;42.694;23.314;2023-05-06T11:41:37;4.20;;;3.22;;
70126;SDS011;57491;42.694;23.314;2023-05-06T11:44:06;3.33;;;3.03;;
70126;SDS011;57491;42.694;23.314;2023-05-06T11:46:35;5.70;;;3.28;;
70126;SDS011;57491;42.694;23.314;2023-05-06T11:49:02;4.43;;;3.70;;
70126;SDS011;57491;42.694;23.314;2023-05-06T11:51:29;6.80;;;3.47;;
70126;SDS011;57491;42.694;23.314;2023-05-06T11:56:41;6.70;;;3.85;;
70126;SDS011;57491;42.694;23.314;2023-05-06T11:59:12;5.10;;;3.72;;
70126;SDS011;57491;42.694;23.314;2023-05-06T12:01:42;4.03;;;2.83;;
70126;SDS011;57491;42.694;23.314;2023-05-06T12:04:10;5.68;;;5.07;;
70126;SDS011;57491;42.694;23.314;2023-05-06T12:11:33;6.38;;;3.60;;
70126;SDS011;57491;42.694;23.314;2023-05-06T12:14:01;5.85;;;3.47;;
70126;SDS011;57491;42.694;23.314;2023-05-06T12:16:31;8.05;;;3.67;;
70126;SDS011;57491;42.694;23.314;2023-05-06T12:19:00;7.07;;;4.50;;
70126;SDS011;57491;42.694;23.314;2023-05-06T12:21:28;4.72;;;3.97;;
70126;SDS011;57491;42.694;23.314;2023-05-06T12:23:58;5.78;;;4.07;;
70126;SDS011;57491;42.694;23.314;2023-05-06T12:26:26;4.03;;;3.30;;
70126;SDS011;57491;42.694;23.314;2023-05-06T12:29:04;4.93;;;3.80;;
70126;SDS011;57491;42.694;23.314;2023-05-06T12:31:33;5.55;;;3.92;;
70126;SDS011;57491;42.694;23.314;2023-05-06T12:34:02;5.13;;;3.58;;
70126;SDS011;57491;42.694;23.314;2023-05-06T12:36:29;5.30;;;4.03;;
70126;SDS011;57491;42.694;23.314;2023-05-06T12:38:59;6.35;;;4.20;;
70126;SDS011;57491;42.694;23.314;2023-05-06T12:41:34;4.55;;;4.15;;
70126;SDS011;57491;42.694;23.314;2023-05-06T12:44:02;7.30;;;4.07;;
70126;SDS011;57491;42.694;23.314;2023-05-06T12:46:50;5.95;;;3.38;;
70126;SDS011;57491;42.694;23.314;2023-05-06T12:49:19;7.22;;;3.50;;
70126;SDS011;57491;42.694;23.314;2023-05-06T12:51:46;6.32;;;3.90;;
70126;SDS011;57491;42.694;23.314;2023-05-06T12:54:28;5.32;;;3.47;;
70126;SDS011;57491;42.694;23.314;2023-05-06T12:56:56;6.45;;;3.85;;
70126;SDS011;57491;42.694;23.314;2023-05-06T12:59:23;4.90;;;4.18;;
70126;SDS011;57491;42.694;23.314;2023-05-06T13:01:51;5.53;;;4.03;;
70126;SDS011;57491;42.694;23.314;2023-05-06T13:04:20;5.60;;;4.75;;
70126;SDS011;57491;42.694;23.314;2023-05-06T13:06:48;4.95;;;3.60;;
70126;SDS011;57491;42.694;23.314;2023-05-06T13:09:15;4.38;;;3.40;;
70126;SDS011;57491;42.694;23.314;2023-05-06T13:11:42;6.18;;;3.72;;
70126;SDS011;57491;42.694;23.314;2023-05-06T13:14:10;9.50;;;4.03;;
70126;SDS011;57491;42.694;23.314;2023-05-06T13:16:37;4.57;;;4.00;;
70126;SDS011;57491;42.694;23.314;2023-05-06T13:19:04;4.25;;;3.55;;
70126;SDS011;57491;42.694;23.314;2023-05-06T13:21:32;5.50;;;3.60;;
70126;SDS011;57491;42.694;23.314;2023-05-06T13:23:59;7.22;;;3.60;;
70126;SDS011;57491;42.694;23.314;2023-05-06T13:26:26;4.45;;;3.78;;
70126;SDS011;57491;42.694;23.314;2023-05-06T13:28:53;4.70;;;3.80;;
70126;SDS011;57491;42.694;23.314;2023-05-06T13:31:20;5.70;;;3.97;;
70126;SDS011;57491;42.694;23.314;2023-05-06T13:33:47;4.45;;;3.00;;
70126;SDS011;57491;42.694;23.314;2023-05-06T13:36:15;6.18;;;4.03;;
70126;SDS011;57491;42.694;23.314;2023-05-06T13:38:43;5.80;;;3.30;;
70126;SDS011;57491;42.694;23.314;2023-05-06T13:41:10;6.25;;;3.38;;
70126;SDS011;57491;42.694;23.314;2023-05-06T13:43:37;6.30;;;3.73;;
70126;SDS011;57491;42.694;23.314;2023-05-06T13:46:04;4.13;;;3.20;;
70126;SDS011;57491;42.694;23.314;2023-05-06T13:48:31;6.25;;;3.78;;
70126;SDS011;57491;42.694;23.314;2023-05-06T13:50:58;3.63;;;3.00;;
70126;SDS011;57491;42.694;23.314;2023-05-06T13:53:25;6.20;;;3.40;;
70126;SDS011;57491;42.694;23.314;2023-05-06T13:55:53;4.97;;;3.50;;
70126;SDS011;57491;42.694;23.314;2023-05-06T13:58:20;6.07;;;3.75;;
70126;SDS011;57491;42.694;23.314;2023-05-06T14:00:48;4.80;;;4.20;;
70126;SDS011;57491;42.694;23.314;2023-05-06T14:03:15;7.82;;;4.13;;
70126;SDS011;57491;42.694;23.314;2023-05-06T14:05:42;4.85;;;3.30;;
70126;SDS011;57491;42.694;23.314;2023-05-06T14:08:09;3.80;;;3.45;;
70126;SDS011;57491;42.694;23.314;2023-05-06T14:10:36;4.50;;;3.80;;
70126;SDS011;57491;42.694;23.314;2023-05-06T14:13:04;3.97;;;3.47;;
70126;SDS011;57491;42.694;23.314;2023-05-06T14:15:31;9.10;;;3.97;;
70126;SDS011;57491;42.694;23.314;2023-05-06T14:17:58;7.30;;;4.38;;
70126;SDS011;57491;42.694;23.314;2023-05-06T14:20:25;6.78;;;3.58;;
70126;SDS011;57491;42.694;23.314;2023-05-06T14:22:52;5.30;;;3.20;;
70126;SDS011;57491;42.694;23.314;2023-05-06T14:25:19;4.32;;;3.70;;
70126;SDS011;57491;42.694;23.314;2023-05-06T14:27:51;4.97;;;3.45;;
70126;SDS011;57491;42.694;23.314;2023-05-06T14:30:20;5.45;;;3.53;;
70126;SDS011;57491;42.694;23.314;2023-05-06T14:32:47;7.18;;;3.30;;
70126;SDS011;57491;42.694;23.314;2023-05-06T14:35:14;6.83;;;3.00;;
70126;SDS011;57491;42.694;23.314;2023-05-06T14:37:41;4.33;;;3.43;;
70126;SDS011;57491;42.694;23.314;2023-05-06T14:40:08;4.45;;;3.22;;
70126;SDS011;57491;42.694;23.314;2023-05-06T14:42:35;3.88;;;3.47;;
70126;SDS011;57491;42.694;23.314;2023-05-06T14:45:03;8.00;;;3.47;;
70126;SDS011;57491;42.694;23.314;2023-05-06T14:47:32;4.82;;;3.85;;
70126;SDS011;57491;42.694;23.314;2023-05-06T14:49:59;4.65;;;3.40;;
70126;SDS011;57491;42.694;23.314;2023-05-06T14:52:26;3.70;;;3.17;;
70126;SDS011;57491;42.694;23.314;2023-05-06T14:54:53;5.37;;;3.13;;
70126;SDS011;57491;42.694;23.314;2023-05-06T14:57:20;6.32;;;3.53;;
70126;SDS011;57491;42.694;23.314;2023-05-06T14:59:48;4.43;;;3.60;;
70126;SDS011;57491;42.694;23.314;2023-05-06T15:02:16;5.03;;;3.20;;
70126;SDS011;57491;42.694;23.314;2023-05-06T15:04:44;6.35;;;3.47;;
70126;SDS011;57491;42.694;23.314;2023-05-06T15:07:11;3.90;;;3.35;;